Flight Track Log - Related Links

Times and Time Zones

All times are in EDT time to prevent confusion due to time zone crossing. See the GGN7280 flight status page for this flight to view local times or setup timezone preferences in your user account.

Time Position Orientation Groundspeed Altitude Reporting Facility
EDT Latitude Longitude Course Direction KTS MPH feet Rate Location/Type
Mon 11:25:19 AM 43.6500 -79.6167 144° Southeast 90 104 1,100  Level Toronto Center
Mon 11:27:19 AM 43.6000 -79.5667 144° Southeast 140 161 4,900 1,000 Climbing Toronto Center
Mon 11:29:19 AM 43.5500 -79.4000 112° Southeast 230 265 5,100 300 Climbing Toronto Center
Mon 11:31:19 AM 43.5167 -79.2500 107° East 230 265 6,100 796 Climbing Toronto Center
Mon 11:32:20 AM 43.4833 -79.1667 119° Southeast 210 242 7,500 1,200 Climbing Toronto Center
Mon 11:33:19 AM 43.4667 -79.1000 109° East 210 242 8,500 1,065 Climbing Toronto Center
Mon 11:35:26 AM 43.4614 -78.9503 93° East 218 251 10,800 1,145 Climbing Cleveland Center
Mon 11:37:20 AM 43.4333 -78.7667 102° East 220 253 13,100 1,179 Climbing Toronto Center
Mon 11:38:19 AM 43.4333 -78.6667 90° East 230 265 14,200 1,087 Climbing Toronto Center
Mon 11:39:27 AM 43.4228 -78.6053 103° East 218 251 15,400 1,127 Climbing Cleveland Center
Mon 11:41:20 AM 43.3833 -78.4167 106° East 230 265 17,600 1,047 Climbing Toronto Center
Mon 11:42:19 AM 43.3667 -78.3333 105° East 230 265 18,400 706 Climbing Toronto Center
Mon 11:43:19 AM 43.3667 -78.2333 90° East 240 276 19,000 384 Climbing Toronto Center
Mon 11:44:24 AM 43.3686 -78.1617 88° East 230 265 19,200 762 Climbing Cleveland Center
Mon 11:45:25 AM 43.3561 -78.0708 101° East 242 278 20,600 1,050 Climbing Cleveland Center
Mon 11:47:00 AM 43.3500 -77.9290 90° East  Level FlightAware Approximate
Mon 11:48:24 AM 43.3253 -77.8064 100° East 237 273 23,400  Level Cleveland Center
Mon 11:49:25 AM 43.3125 -77.7186 101° East 237 273 24,200 744 Climbing Cleveland Center
Mon 11:50:25 AM 43.3167 -77.6300 86° East 237 273 24,900 205 Climbing Cleveland Center
Mon 11:53:19 AM 43.2667 -77.3167 102° East 260 299 25,000 26 Climbing Toronto Center
Mon 11:54:00 AM 43.2586 -77.3163 100° East  Level FlightAware Approximate
Mon 11:54:19 AM 43.2500 -77.2333 105° East 260 299 25,000  Level Toronto Center
Mon 11:56:19 AM 43.2333 -77.0167 96° East 270 311 25,000  Level Toronto Center
Mon 11:58:19 AM 43.2167 -76.8167 96° East 270 311 25,000  Level Toronto Center
Mon 12:01:19 PM 43.1667 -76.5167 103° East 270 311 25,000  Level Toronto Center
Mon 12:03:00 PM 43.1450 -76.3711 102° East  Level FlightAware Approximate
Mon 12:03:19 PM 43.1333 -76.3167 102° East 270 311 25,000  Level Toronto Center
Mon 12:05:00 PM 43.1145 -76.1704 103° East  Level FlightAware Approximate
Mon 12:06:27 PM 43.1075 -76.0722 103° East 261 300 25,000  Level Boston Center
Mon 12:07:26 PM 43.0906 -75.9489 101° East 261 300 25,000 70 Level Boston Center
Mon 12:09:19 PM 43.0500 -75.7167 103° East 270 311 25,200  Climbing Toronto Center
Mon 12:10:19 PM 43.0333 -75.6167 103° East 270 311 25,000 -700 Descending Toronto Center
Mon 12:12:00 PM 43.0083 -75.4719 104° East  Level FlightAware Approximate
Mon 12:12:19 PM 43.0000 -75.4000 104° East 290 334 23,100  Level Toronto Center
Mon 12:13:26 PM 42.9931 -75.3328 98° East 278 320 22,000 -1,251 Descending Boston Center
Mon 12:15:00 PM 42.9607 -75.2019 100° East  Level FlightAware Approximate
Mon 12:17:26 PM 42.9297 -74.9214 103° East 272 313 16,700  Level Boston Center
Mon 12:18:16 PM 42.9189 -74.8444 101° East 260 299 15,800 -1,277 Descending Boston Center
Mon 12:19:47 PM 42.8928 -74.6989 104° East 256 295 13,700 -1,385 Descending Boston Center
Mon 12:20:26 PM 42.8836 -74.6333 101° East 260 299 12,800 -1,065 Descending Boston Center
Mon 12:22:00 PM 42.8667 -74.6021 90° East  Level FlightAware Approximate
Mon 12:22:00 PM 42.8615 -74.5025 103° East  Level FlightAware Approximate
Mon 12:23:00 PM 42.8636 -74.5147 103° East  Level FlightAware Approximate
Mon 12:23:38 PM 42.8369 -74.3344 101° East 255 293 9,600  Level Boston Center
Mon 12:25:05 PM 42.8286 -74.2067 95° East 258 297 8,200 -1,324 Descending Boston Center
Mon 12:26:03 PM 42.8300 -74.1075 89° East 266 306 6,400 -1,676 Descending Boston Center
Mon 12:28:04 PM 42.8347 -73.9067 88° East 233 268 3,200 -1,200 Descending Boston Center
Mon 12:28:38 PM 42.8353 -73.8756 89° East 249 287 3,300 -873 Climbing Boston Center
Mon 12:28:59 PM 42.8336 -73.8472 95° East 176 203 2,400 -1,610 Descending Boston Center
Mon 12:29:00 PM 42.7538 -73.9096 101° East  Level FlightAware Approximate
Mon 12:30:00 PM 42.7964 -73.8097 144° Southeast 154 177 1,100  Level Boston Center
Mon 12:34:00 PM 42.7491 -73.8020 105° East  Level Estimated
Mon 12:41:00 PM 42.7491 -73.8020 105° East  Level Estimated

Login

Don't have an account? Register now (free) for customized features, flight alerts, and more!